Hauptseite
METAR-TAF:

METAR-TAF

Flughäfen :

Gran Canaria, Spanien

Flughafen Gran Canaria

Breite: 27-56N, Länge: 015-23W, Höhe: 23 m

Beobachtung

Neuester Wetterbericht von vor 11 Minuten, um 09:00 UTC
Wind 23 kt aus Nord
Temperatur 23°C
Luftfeuchtigkeit 57%
Luftdruck 1019 hPa
Sichtweite 10 km oder mehr
Leicht bewölkt in der Höhe von 2500 ft
Durchbrochene Bewölkung in der Höhe von 3500 ft

METAR: GCLP 300900Z 36023KT 9999 FEW025 BKN035 23/14 Q1019 NOSIG

Zeit: 10:11 (09:11 UTC)

Prognose

Neuester Wetterbericht von vor 1 Stunde und 11 Minuten, um 08:00 UTC
Gültige Prognose vom 30 um 09 UTC bis 31 um 09 UTC
Wind 20 kt aus Nord
Sichtweite 10 km oder mehr
Aufgelockert bewölkt in der Höhe von 3000 ft
Wahrscheinlichkeit 40% :
Zeitweise
vom 30 um 09 UTC bis 31 um 09 UTC
Wind 20 kt aus Nord, Böen bis zu 30 kt

TAF: GCLP 300800Z 3009/3109 01020KT 9999 SCT030 TX26/3014Z TN20/3104Z PROB40 TEMPO 3009/3109 01020G30KT

Wetterbeobachtungen und Prognosen von mehr als 4000 Flughäfen (METAR und TAF Bericht).

Die verfügbaren Stationen werden durch gelbe und rote Markierungen auf der Karte dargestellt.

Führen Sie die Maus auf sie, um den Namen der Station zu sehen.

Darauf klicken, um die Beobachtung von Wetterbeobachtungen und Prognosen zu sehen.

Um die Karte zu ändern : klicken Sie auf den grünen Tasten mit einem schwarzen Kreuz Zum Vergrößern, auf den grünen Button mit einem Gedankenstrich zu verkleinern, oder auf die grünen Pfeile für benachbarte Karten.


METAR-TAF: